Air Resources Laboratory banner image
Air Resources Laboratory web site National Oceanic and Atmospheric Administration (NOAA)

al metar


K79J 231956Z AUTO 14007KT 10SM TS FEW043 FEW050 28/22 A3003 RMK AO2 TSB1859
 SLP164 T02780222=
KANB 231953Z AUTO 01005KT 10SM FEW041 30/19 A3005 RMK AO2 SLP165 T03000189=
KAUO 231956Z AUTO VRB04KT 10SM FEW080 28/21 A3007 RMK AO2 LTG DSNT SW AND W
 SLP191 T02780211=
KBFM 231953Z 33009KT 10SM TS FEW034 BKN042 BKN070 30/23 A3005 RMK AO2 LTG DSNT
 NW-E TSB05E47B50 SLP177 T03000228=
KBHM 231953Z 12006KT 10SM FEW035 OVC250 27/21 A3008 RMK AO2 LTG DSNT W TSE00
 SLP179 T02670206=
KDCU 231953Z AUTO 02008KT 350V070 10SM CLR 31/19 A3006 RMK AO2 SLP172 T03110189=
KDHN 231953Z 17003KT 10SM -RA FEW050 SCT100 BKN120 22/21 A3009 RMK AO2 LTG DSNT
 E AND S TSE04 SLP185 P0001 T02220206=
KEET 231953Z AUTO 00000KT 10SM CLR 27/22 A3006 RMK AO2 LTG DSNT W SLP173
 T02720217=
KGAD 231956Z AUTO 00000KT 10SM BKN041 BKN050 BKN060 30/22 A3005 RMK AO2 SLP173
 T03000217=
KGZH 231953Z AUTO 02004KT 10SM FEW055 32/20 A3002 RMK AO2 LTG DSNT NE AND SE
 SLP162 T03170200=
KHSV 231953Z 05005KT 10SM SCT055 BKN250 31/19 A3005 RMK AO2 SLP169 T03060194=
KLOR 231954Z AUTO 12003KT 9SM FEW034 SCT220 25/23 A3005 RMK AO2 LTG DSNT S AND
 W RAB02E39RAB45E54 SLP157=
KMGM 231953Z 28007KT 10SM FEW020 31/22 A3004 RMK AO2 LTG DSNT N AND NW SLP169
 T03060222=
KMOB 231956Z 22009KT 7SM VCTS FEW040CB SCT100 SCT200 30/22 A3004 RMK AO2 LTG
 DSNT NW-E TSB08E23 SLP170 OCNL LTGIC E-SE TS VC E-SE MOV N CB DSNT ALQDS
 T03000222=
KMSL 231953Z AUTO 06005KT 10SM SCT049 31/19 A3006 RMK AO2 SLP173 T03110194=
KMXF 231956Z AUTO 34004KT 10SM FEW035 31/22 A3003 RMK AO2 SLP170 T03060219 $=
KOZR 231956Z AUTO 12004KT 10SM FEW160 FEW190 SCT220 24/22 A3005 RMK AO2 LTG
 DSNT S-SW DZE13 SLP176 P0000 T02430218 $=
KSXS 231958Z AUTO 15007KT 10SM FEW030 24/22 A3005 RMK AO2 LTG DSNT N AND SE AND
 SW RAE11 SLP175 P0000 T02420215=
KTCL 231953Z 07006KT 10SM TS FEW028 SCT050 BKN065 24/21 A3007 RMK AO2 LTG DSNT
 N-SE RAB26E47 TSE17B42 SLP179 P0000 T02440211=
KTOI 231953Z AUTO 14006KT 10SM VCTS FEW055 FEW070 25/22 A3006 RMK AO2 LTG DSNT
 S RAB08E31 TSB1857E12B21E43 SLP175 P0000 T02500217=